Terminal Aerodrome Forecast
Issued by NWS

Home | Current Version | Previous Version | Text Only | Print | Product List | Glossary On
Versions: 1 2 3 4 5 6 7 8 9 10 11 12
000
FTPA31 PHFO 200520
TAFHLI
TAF
PHLI 200520Z 2006/2106 05017KT 6SM -SHRA SCT022 BKN040
      TEMPO 2006/2009 05020G26KT 4SM SHRA SCT020 BKN030 OVC050
     FM201500 05015KT P6SM VCSH SCT022 BKN040
     FM201900 05018G24KT P6SM VCSH SCT025 BKN040=

USA.gov is the U.S. government's official web portal to all federal, state and local government web resources and services.